sensor_id;sensor_type;location;lat;lon;timestamp;temperature;humidity
67868;SHT31;54672;46.096;14.470;2024-02-26T00:02:16;2.54;99.99
67868;SHT31;54672;46.096;14.470;2024-02-26T00:04:41;2.83;99.99
67868;SHT31;54672;46.096;14.470;2024-02-26T00:07:07;2.91;99.99
67868;SHT31;54672;46.096;14.470;2024-02-26T00:09:32;2.83;99.99
67868;SHT31;54672;46.096;14.470;2024-02-26T00:12:01;2.71;99.99
67868;SHT31;54672;46.096;14.470;2024-02-26T00:14:29;2.64;99.99
67868;SHT31;54672;46.096;14.470;2024-02-26T00:16:54;2.60;99.99
67868;SHT31;54672;46.096;14.470;2024-02-26T00:19:20;2.57;99.99
67868;SHT31;54672;46.096;14.470;2024-02-26T00:21:45;2.53;99.99
67868;SHT31;54672;46.096;14.470;2024-02-26T00:24:11;2.40;99.99
67868;SHT31;54672;46.096;14.470;2024-02-26T00:26:36;2.30;99.99
67868;SHT31;54672;46.096;14.470;2024-02-26T00:29:02;2.23;99.99
67868;SHT31;54672;46.096;14.470;2024-02-26T00:31:27;2.13;99.99
67868;SHT31;54672;46.096;14.470;2024-02-26T00:33:53;2.12;99.99
67868;SHT31;54672;46.096;14.470;2024-02-26T00:36:18;2.15;99.99
67868;SHT31;54672;46.096;14.470;2024-02-26T00:38:44;2.13;99.99
67868;SHT31;54672;46.096;14.470;2024-02-26T00:41:11;2.06;99.99
67868;SHT31;54672;46.096;14.470;2024-02-26T00:43:37;2.01;99.99
67868;SHT31;54672;46.096;14.470;2024-02-26T00:46:04;1.97;99.99
67868;SHT31;54672;46.096;14.470;2024-02-26T00:48:30;2.02;99.99
67868;SHT31;54672;46.096;14.470;2024-02-26T00:50:55;1.99;99.99
67868;SHT31;54672;46.096;14.470;2024-02-26T00:53:21;1.88;99.99
67868;SHT31;54672;46.096;14.470;2024-02-26T00:55:46;1.85;99.99
67868;SHT31;54672;46.096;14.470;2024-02-26T00:58:12;1.82;99.99
67868;SHT31;54672;46.096;14.470;2024-02-26T01:00:37;1.91;99.99
67868;SHT31;54672;46.096;14.470;2024-02-26T01:03:03;1.98;99.99
67868;SHT31;54672;46.096;14.470;2024-02-26T01:05:29;2.06;99.99
67868;SHT31;54672;46.096;14.470;2024-02-26T01:07:55;2.06;99.99
67868;SHT31;54672;46.096;14.470;2024-02-26T01:10:20;1.91;99.99
67868;SHT31;54672;46.096;14.470;2024-02-26T01:12:46;1.71;99.99
67868;SHT31;54672;46.096;14.470;2024-02-26T01:15:11;1.55;99.99
67868;SHT31;54672;46.096;14.470;2024-02-26T01:17:37;1.50;99.99
67868;SHT31;54672;46.096;14.470;2024-02-26T01:20:04;1.37;99.99
67868;SHT31;54672;46.096;14.470;2024-02-26T01:22:30;1.29;99.99
67868;SHT31;54672;46.096;14.470;2024-02-26T01:24:55;1.39;99.99
67868;SHT31;54672;46.096;14.470;2024-02-26T01:27:22;1.40;99.99
67868;SHT31;54672;46.096;14.470;2024-02-26T01:29:52;1.44;99.99
67868;SHT31;54672;46.096;14.470;2024-02-26T01:32:17;1.39;99.99
67868;SHT31;54672;46.096;14.470;2024-02-26T01:34:43;1.37;99.99
67868;SHT31;54672;46.096;14.470;2024-02-26T01:37:08;1.29;99.99
67868;SHT31;54672;46.096;14.470;2024-02-26T01:39:34;1.23;99.99
67868;SHT31;54672;46.096;14.470;2024-02-26T01:41:59;1.19;99.99
67868;SHT31;54672;46.096;14.470;2024-02-26T01:44:26;1.15;99.99
67868;SHT31;54672;46.096;14.470;2024-02-26T01:46:51;1.16;99.99
67868;SHT31;54672;46.096;14.470;2024-02-26T01:49:18;1.16;99.99
67868;SHT31;54672;46.096;14.470;2024-02-26T01:51:44;1.17;99.99
67868;SHT31;54672;46.096;14.470;2024-02-26T01:54:10;1.27;99.99
67868;SHT31;54672;46.096;14.470;2024-02-26T01:56:36;1.30;99.99
67868;SHT31;54672;46.096;14.470;2024-02-26T01:59:03;1.41;99.99
67868;SHT31;54672;46.096;14.470;2024-02-26T02:01:31;1.44;99.99
67868;SHT31;54672;46.096;14.470;2024-02-26T02:03:59;1.54;99.99
67868;SHT31;54672;46.096;14.470;2024-02-26T02:06:25;1.62;99.99
67868;SHT31;54672;46.096;14.470;2024-02-26T02:08:50;1.58;99.99
67868;SHT31;54672;46.096;14.470;2024-02-26T02:11:16;1.57;99.99
67868;SHT31;54672;46.096;14.470;2024-02-26T02:13:42;1.54;99.99
67868;SHT31;54672;46.096;14.470;2024-02-26T02:16:07;1.57;99.99
67868;SHT31;54672;46.096;14.470;2024-02-26T02:18:33;1.65;99.99
67868;SHT31;54672;46.096;14.470;2024-02-26T02:21:02;1.71;99.99
67868;SHT31;54672;46.096;14.470;2024-02-26T02:23:28;1.51;99.99
67868;SHT31;54672;46.096;14.470;2024-02-26T02:25:53;1.46;99.99
67868;SHT31;54672;46.096;14.470;2024-02-26T02:28:20;1.54;99.99
67868;SHT31;54672;46.096;14.470;2024-02-26T02:30:46;1.46;99.99
67868;SHT31;54672;46.096;14.470;2024-02-26T02:33:12;1.61;99.99
67868;SHT31;54672;46.096;14.470;2024-02-26T02:35:38;1.65;99.99
67868;SHT31;54672;46.096;14.470;2024-02-26T02:38:03;1.64;99.99
67868;SHT31;54672;46.096;14.470;2024-02-26T02:40:29;1.64;99.99
67868;SHT31;54672;46.096;14.470;2024-02-26T02:42:54;1.60;99.99
67868;SHT31;54672;46.096;14.470;2024-02-26T02:45:20;1.37;99.99
67868;SHT31;54672;46.096;14.470;2024-02-26T02:47:45;1.37;99.99
67868;SHT31;54672;46.096;14.470;2024-02-26T02:50:11;1.46;99.99
67868;SHT31;54672;46.096;14.470;2024-02-26T02:52:36;1.50;99.99
67868;SHT31;54672;46.096;14.470;2024-02-26T02:55:02;1.53;99.99
67868;SHT31;54672;46.096;14.470;2024-02-26T02:57:28;1.57;99.99
67868;SHT31;54672;46.096;14.470;2024-02-26T02:59:53;1.51;99.99
67868;SHT31;54672;46.096;14.470;2024-02-26T03:02:19;1.51;99.99
67868;SHT31;54672;46.096;14.470;2024-02-26T03:04:44;1.50;99.99
67868;SHT31;54672;46.096;14.470;2024-02-26T03:07:10;1.50;99.99
67868;SHT31;54672;46.096;14.470;2024-02-26T03:09:35;1.53;99.99
67868;SHT31;54672;46.096;14.470;2024-02-26T03:12:01;1.44;99.99
67868;SHT31;54672;46.096;14.470;2024-02-26T03:14:26;1.43;99.99
67868;SHT31;54672;46.096;14.470;2024-02-26T03:16:55;1.41;99.99
67868;SHT31;54672;46.096;14.470;2024-02-26T03:19:20;1.22;99.99
67868;SHT31;54672;46.096;14.470;2024-02-26T03:21:46;1.27;99.99
67868;SHT31;54672;46.096;14.470;2024-02-26T03:24:11;1.33;99.99
67868;SHT31;54672;46.096;14.470;2024-02-26T03:26:38;1.40;99.99
67868;SHT31;54672;46.096;14.470;2024-02-26T03:29:03;1.27;99.99
67868;SHT31;54672;46.096;14.470;2024-02-26T03:31:29;0.93;99.99
67868;SHT31;54672;46.096;14.470;2024-02-26T03:33:54;0.83;99.99
67868;SHT31;54672;46.096;14.470;2024-02-26T03:36:20;0.76;99.99
67868;SHT31;54672;46.096;14.470;2024-02-26T03:38:47;0.69;99.99
67868;SHT31;54672;46.096;14.470;2024-02-26T03:41:12;0.62;99.99
67868;SHT31;54672;46.096;14.470;2024-02-26T03:43:38;0.61;99.99
67868;SHT31;54672;46.096;14.470;2024-02-26T03:46:03;0.62;99.99
67868;SHT31;54672;46.096;14.470;2024-02-26T03:48:29;0.61;99.99
67868;SHT31;54672;46.096;14.470;2024-02-26T03:50:54;0.73;99.99
67868;SHT31;54672;46.096;14.470;2024-02-26T03:53:20;0.85;99.99
67868;SHT31;54672;46.096;14.470;2024-02-26T03:55:45;0.83;99.99
67868;SHT31;54672;46.096;14.470;2024-02-26T03:58:12;0.73;99.99
67868;SHT31;54672;46.096;14.470;2024-02-26T04:00:38;0.73;99.99
67868;SHT31;54672;46.096;14.470;2024-02-26T04:03:03;0.36;99.99
67868;SHT31;54672;46.096;14.470;2024-02-26T04:05:29;0.52;99.99
67868;SHT31;54672;46.096;14.470;2024-02-26T04:07:54;0.25;99.99
67868;SHT31;54672;46.096;14.470;2024-02-26T04:10:20;0.22;99.99
67868;SHT31;54672;46.096;14.470;2024-02-26T04:12:45;0.13;99.99
67868;SHT31;54672;46.096;14.470;2024-02-26T04:15:11;0.04;99.99
67868;SHT31;54672;46.096;14.470;2024-02-26T04:17:37;0.06;99.99
67868;SHT31;54672;46.096;14.470;2024-02-26T04:20:03;0.10;99.99
67868;SHT31;54672;46.096;14.470;2024-02-26T04:22:30;0.22;99.99
67868;SHT31;54672;46.096;14.470;2024-02-26T04:24:57;0.13;99.99
67868;SHT31;54672;46.096;14.470;2024-02-26T04:27:22;0.15;99.99
67868;SHT31;54672;46.096;14.470;2024-02-26T04:29:48;0.27;99.99
67868;SHT31;54672;46.096;14.470;2024-02-26T04:32:13;0.30;99.99
67868;SHT31;54672;46.096;14.470;2024-02-26T04:34:39;0.38;99.99
67868;SHT31;54672;46.096;14.470;2024-02-26T04:37:04;0.40;99.99
67868;SHT31;54672;46.096;14.470;2024-02-26T04:39:29;0.38;99.99
67868;SHT31;54672;46.096;14.470;2024-02-26T04:41:55;0.44;99.99
67868;SHT31;54672;46.096;14.470;2024-02-26T04:44:20;0.50;99.99
67868;SHT31;54672;46.096;14.470;2024-02-26T04:46:46;0.50;99.99
67868;SHT31;54672;46.096;14.470;2024-02-26T04:49:11;0.52;99.99
67868;SHT31;54672;46.096;14.470;2024-02-26T04:51:37;0.47;99.99
67868;SHT31;54672;46.096;14.470;2024-02-26T04:54:02;0.37;99.99
67868;SHT31;54672;46.096;14.470;2024-02-26T04:56:28;0.45;99.99
67868;SHT31;54672;46.096;14.470;2024-02-26T04:58:53;0.40;99.99
67868;SHT31;54672;46.096;14.470;2024-02-26T05:01:19;0.36;99.99
67868;SHT31;54672;46.096;14.470;2024-02-26T05:03:44;0.22;99.99
67868;SHT31;54672;46.096;14.470;2024-02-26T05:06:10;0.34;99.99
67868;SHT31;54672;46.096;14.470;2024-02-26T05:08:35;0.32;99.99
67868;SHT31;54672;46.096;14.470;2024-02-26T05:11:05;0.21;99.99
67868;SHT31;54672;46.096;14.470;2024-02-26T05:13:31;0.11;99.99
67868;SHT31;54672;46.096;14.470;2024-02-26T05:15:57;0.20;99.99
67868;SHT31;54672;46.096;14.470;2024-02-26T05:18:22;0.27;99.99
67868;SHT31;54672;46.096;14.470;2024-02-26T05:20:48;0.24;99.99
67868;SHT31;54672;46.096;14.470;2024-02-26T05:23:14;0.31;99.99
67868;SHT31;54672;46.096;14.470;2024-02-26T05:25:39;0.32;99.99
67868;SHT31;54672;46.096;14.470;2024-02-26T05:28:05;0.34;99.99
67868;SHT31;54672;46.096;14.470;2024-02-26T05:30:31;0.34;99.99
67868;SHT31;54672;46.096;14.470;2024-02-26T05:32:56;0.40;99.99
67868;SHT31;54672;46.096;14.470;2024-02-26T05:35:22;0.48;99.99
67868;SHT31;54672;46.096;14.470;2024-02-26T05:37:47;0.38;99.99
67868;SHT31;54672;46.096;14.470;2024-02-26T05:40:13;0.50;99.99
67868;SHT31;54672;46.096;14.470;2024-02-26T05:42:38;0.28;99.99
67868;SHT31;54672;46.096;14.470;2024-02-26T05:45:04;0.30;99.99
67868;SHT31;54672;46.096;14.470;2024-02-26T05:47:34;0.34;99.99
67868;SHT31;54672;46.096;14.470;2024-02-26T05:50:00;0.27;99.99
67868;SHT31;54672;46.096;14.470;2024-02-26T05:52:26;0.21;99.99
67868;SHT31;54672;46.096;14.470;2024-02-26T05:54:53;0.25;99.99
67868;SHT31;54672;46.096;14.470;2024-02-26T05:57:18;0.30;99.99
67868;SHT31;54672;46.096;14.470;2024-02-26T05:59:44;0.42;99.99
67868;SHT31;54672;46.096;14.470;2024-02-26T06:02:09;0.52;99.99
67868;SHT31;54672;46.096;14.470;2024-02-26T06:04:35;0.50;99.99
67868;SHT31;54672;46.096;14.470;2024-02-26T06:07:00;0.42;99.99
67868;SHT31;54672;46.096;14.470;2024-02-26T06:09:26;0.54;99.99
67868;SHT31;54672;46.096;14.470;2024-02-26T06:11:51;0.32;99.99
67868;SHT31;54672;46.096;14.470;2024-02-26T06:14:17;0.25;99.99
67868;SHT31;54672;46.096;14.470;2024-02-26T06:16:44;0.27;99.99
67868;SHT31;54672;46.096;14.470;2024-02-26T06:19:09;0.31;99.99
67868;SHT31;54672;46.096;14.470;2024-02-26T06:21:34;0.37;99.99
67868;SHT31;54672;46.096;14.470;2024-02-26T06:24:01;0.28;99.99
67868;SHT31;54672;46.096;14.470;2024-02-26T06:26:26;0.25;99.99
67868;SHT31;54672;46.096;14.470;2024-02-26T06:28:54;0.18;99.99
67868;SHT31;54672;46.096;14.470;2024-02-26T06:31:21;0.20;99.99
67868;SHT31;54672;46.096;14.470;2024-02-26T06:33:48;0.22;99.99
67868;SHT31;54672;46.096;14.470;2024-02-26T06:36:13;0.30;99.99
67868;SHT31;54672;46.096;14.470;2024-02-26T06:38:39;0.42;99.99
67868;SHT31;54672;46.096;14.470;2024-02-26T06:41:04;0.40;99.99
67868;SHT31;54672;46.096;14.470;2024-02-26T06:43:30;0.64;99.99
67868;SHT31;54672;46.096;14.470;2024-02-26T06:45:55;0.61;99.99
67868;SHT31;54672;46.096;14.470;2024-02-26T06:48:22;0.86;99.99
67868;SHT31;54672;46.096;14.470;2024-02-26T06:50:48;0.68;99.99
67868;SHT31;54672;46.096;14.470;2024-02-26T06:53:13;0.61;99.99
67868;SHT31;54672;46.096;14.470;2024-02-26T06:55:38;0.72;99.99
67868;SHT31;54672;46.096;14.470;2024-02-26T06:58:06;0.85;99.99
67868;SHT31;54672;46.096;14.470;2024-02-26T07:00:31;0.76;99.99
67868;SHT31;54672;46.096;14.470;2024-02-26T07:02:57;0.69;99.99
67868;SHT31;54672;46.096;14.470;2024-02-26T07:05:23;0.75;99.99
67868;SHT31;54672;46.096;14.470;2024-02-26T07:07:49;0.71;99.99
67868;SHT31;54672;46.096;14.470;2024-02-26T07:10:14;0.86;99.99
67868;SHT31;54672;46.096;14.470;2024-02-26T07:12:40;0.93;99.99
67868;SHT31;54672;46.096;14.470;2024-02-26T07:15:05;0.86;99.99
67868;SHT31;54672;46.096;14.470;2024-02-26T07:17:33;0.97;99.99
67868;SHT31;54672;46.096;14.470;2024-02-26T07:20:02;1.30;99.99
67868;SHT31;54672;46.096;14.470;2024-02-26T07:22:31;1.20;99.99
67868;SHT31;54672;46.096;14.470;2024-02-26T07:24:56;1.10;99.99
67868;SHT31;54672;46.096;14.470;2024-02-26T07:27:22;0.99;99.99
67868;SHT31;54672;46.096;14.470;2024-02-26T07:29:47;1.02;99.99
67868;SHT31;54672;46.096;14.470;2024-02-26T07:32:13;1.04;99.99
67868;SHT31;54672;46.096;14.470;2024-02-26T07:34:38;1.03;99.99
67868;SHT31;54672;46.096;14.470;2024-02-26T07:37:07;1.20;99.99
67868;SHT31;54672;46.096;14.470;2024-02-26T07:39:33;1.16;99.99
67868;SHT31;54672;46.096;14.470;2024-02-26T07:41:58;1.15;99.99
67868;SHT31;54672;46.096;14.470;2024-02-26T07:44:23;1.16;99.99
67868;SHT31;54672;46.096;14.470;2024-02-26T07:46:49;1.22;99.99
67868;SHT31;54672;46.096;14.470;2024-02-26T07:49:15;1.09;99.99
67868;SHT31;54672;46.096;14.470;2024-02-26T07:51:40;1.16;99.99
67868;SHT31;54672;46.096;14.470;2024-02-26T07:54:05;1.15;99.99
67868;SHT31;54672;46.096;14.470;2024-02-26T07:56:31;1.26;99.99
67868;SHT31;54672;46.096;14.470;2024-02-26T07:58:57;1.47;99.99
67868;SHT31;54672;46.096;14.470;2024-02-26T08:01:22;1.48;99.99
67868;SHT31;54672;46.096;14.470;2024-02-26T08:03:48;1.79;99.99
67868;SHT31;54672;46.096;14.470;2024-02-26T08:06:13;1.67;99.99
67868;SHT31;54672;46.096;14.470;2024-02-26T08:08:39;1.98;99.99
67868;SHT31;54672;46.096;14.470;2024-02-26T08:11:04;1.78;99.99
67868;SHT31;54672;46.096;14.470;2024-02-26T08:13:30;1.99;99.99
67868;SHT31;54672;46.096;14.470;2024-02-26T08:15:55;2.05;99.99
67868;SHT31;54672;46.096;14.470;2024-02-26T08:18:21;2.05;99.99
67868;SHT31;54672;46.096;14.470;2024-02-26T08:20:46;1.91;99.99
67868;SHT31;54672;46.096;14.470;2024-02-26T08:23:14;1.82;99.99
67868;SHT31;54672;46.096;14.470;2024-02-26T08:25:39;1.78;99.99
67868;SHT31;54672;46.096;14.470;2024-02-26T08:28:05;1.89;99.99
67868;SHT31;54672;46.096;14.470;2024-02-26T08:30:30;1.94;99.99
67868;SHT31;54672;46.096;14.470;2024-02-26T08:32:56;1.97;99.99
67868;SHT31;54672;46.096;14.470;2024-02-26T08:35:21;2.08;99.99
67868;SHT31;54672;46.096;14.470;2024-02-26T08:37:47;2.29;99.99
67868;SHT31;54672;46.096;14.470;2024-02-26T08:40:13;2.18;99.99
67868;SHT31;54672;46.096;14.470;2024-02-26T08:42:39;2.15;99.99
67868;SHT31;54672;46.096;14.470;2024-02-26T08:45:05;2.36;99.99
67868;SHT31;54672;46.096;14.470;2024-02-26T08:47:31;2.46;99.99
67868;SHT31;54672;46.096;14.470;2024-02-26T08:49:57;2.28;99.99
67868;SHT31;54672;46.096;14.470;2024-02-26T08:52:23;2.50;99.99
67868;SHT31;54672;46.096;14.470;2024-02-26T08:54:48;2.64;99.99
67868;SHT31;54672;46.096;14.470;2024-02-26T08:57:14;2.71;99.99
67868;SHT31;54672;46.096;14.470;2024-02-26T08:59:40;2.79;99.99
67868;SHT31;54672;46.096;14.470;2024-02-26T09:02:05;2.97;99.99
67868;SHT31;54672;46.096;14.470;2024-02-26T09:04:31;3.19;99.99
67868;SHT31;54672;46.096;14.470;2024-02-26T09:06:56;3.52;99.99
67868;SHT31;54672;46.096;14.470;2024-02-26T09:09:22;3.58;99.56
67868;SHT31;54672;46.096;14.470;2024-02-26T09:11:48;3.29;99.99
67868;SHT31;54672;46.096;14.470;2024-02-26T09:14:14;3.60;99.99
67868;SHT31;54672;46.096;14.470;2024-02-26T09:16:39;3.70;98.84
67868;SHT31;54672;46.096;14.470;2024-02-26T09:19:04;4.08;97.53
67868;SHT31;54672;46.096;14.470;2024-02-26T09:21:30;4.42;97.12
67868;SHT31;54672;46.096;14.470;2024-02-26T09:23:56;5.03;97.03
67868;SHT31;54672;46.096;14.470;2024-02-26T09:26:21;4.63;96.79
67868;SHT31;54672;46.096;14.470;2024-02-26T09:28:47;4.96;96.02
67868;SHT31;54672;46.096;14.470;2024-02-26T09:31:12;4.73;97.57
67868;SHT31;54672;46.096;14.470;2024-02-26T09:33:38;4.42;97.59
67868;SHT31;54672;46.096;14.470;2024-02-26T09:36:04;4.86;96.91
67868;SHT31;54672;46.096;14.470;2024-02-26T09:38:31;5.17;96.28
67868;SHT31;54672;46.096;14.470;2024-02-26T09:41:02;4.96;96.49
67868;SHT31;54672;46.096;14.470;2024-02-26T09:43:34;4.99;95.13
67868;SHT31;54672;46.096;14.470;2024-02-26T09:46:00;4.58;96.65
67868;SHT31;54672;46.096;14.470;2024-02-26T09:48:26;5.03;97.24
67868;SHT31;54672;46.096;14.470;2024-02-26T09:50:53;5.30;95.94
67868;SHT31;54672;46.096;14.470;2024-02-26T09:53:21;5.44;95.49
67868;SHT31;54672;46.096;14.470;2024-02-26T09:55:47;5.68;95.01
67868;SHT31;54672;46.096;14.470;2024-02-26T09:58:13;5.82;93.88
67868;SHT31;54672;46.096;14.470;2024-02-26T10:00:47;5.74;93.43
67868;SHT31;54672;46.096;14.470;2024-02-26T10:03:15;5.64;93.66
67868;SHT31;54672;46.096;14.470;2024-02-26T10:05:42;5.48;93.67
67868;SHT31;54672;46.096;14.470;2024-02-26T10:08:09;5.30;94.36
67868;SHT31;54672;46.096;14.470;2024-02-26T10:10:36;5.09;96.52
67868;SHT31;54672;46.096;14.470;2024-02-26T10:13:03;5.23;95.91
67868;SHT31;54672;46.096;14.470;2024-02-26T10:15:31;5.38;96.09
67868;SHT31;54672;46.096;14.470;2024-02-26T10:17:57;5.47;95.40
67868;SHT31;54672;46.096;14.470;2024-02-26T10:20:23;5.50;95.61
67868;SHT31;54672;46.096;14.470;2024-02-26T10:22:49;5.64;95.48
67868;SHT31;54672;46.096;14.470;2024-02-26T10:25:15;5.79;94.93
67868;SHT31;54672;46.096;14.470;2024-02-26T10:27:41;6.26;94.59
67868;SHT31;54672;46.096;14.470;2024-02-26T10:30:20;6.41;93.34
67868;SHT31;54672;46.096;14.470;2024-02-26T10:32:51;6.17;93.54
67868;SHT31;54672;46.096;14.470;2024-02-26T10:35:17;5.95;93.78
67868;SHT31;54672;46.096;14.470;2024-02-26T10:37:43;6.40;93.66
67868;SHT31;54672;46.096;14.470;2024-02-26T10:40:13;6.36;92.74
67868;SHT31;54672;46.096;14.470;2024-02-26T10:42:39;6.63;92.77
67868;SHT31;54672;46.096;14.470;2024-02-26T10:45:06;6.61;92.45
67868;SHT31;54672;46.096;14.470;2024-02-26T10:47:33;6.64;92.37
67868;SHT31;54672;46.096;14.470;2024-02-26T10:50:00;6.63;92.79
67868;SHT31;54672;46.096;14.470;2024-02-26T10:52:27;7.33;91.37
67868;SHT31;54672;46.096;14.470;2024-02-26T10:54:54;7.66;91.14
67868;SHT31;54672;46.096;14.470;2024-02-26T10:57:22;7.83;90.06
67868;SHT31;54672;46.096;14.470;2024-02-26T10:59:51;7.49;90.81
67868;SHT31;54672;46.096;14.470;2024-02-26T11:02:17;7.57;91.01
67868;SHT31;54672;46.096;14.470;2024-02-26T11:04:43;7.57;91.36
67868;SHT31;54672;46.096;14.470;2024-02-26T11:07:09;7.42;91.58
67868;SHT31;54672;46.096;14.470;2024-02-26T11:09:36;7.54;91.63
67868;SHT31;54672;46.096;14.470;2024-02-26T11:12:08;7.50;91.44
67868;SHT31;54672;46.096;14.470;2024-02-26T11:14:39;7.32;92.55
67868;SHT31;54672;46.096;14.470;2024-02-26T11:17:06;7.06;93.96
67868;SHT31;54672;46.096;14.470;2024-02-26T11:19:35;7.16;94.02
67868;SHT31;54672;46.096;14.470;2024-02-26T11:22:02;7.36;92.76
67868;SHT31;54672;46.096;14.470;2024-02-26T11:24:28;7.63;92.49
67868;SHT31;54672;46.096;14.470;2024-02-26T11:26:56;7.20;92.65
67868;SHT31;54672;46.096;14.470;2024-02-26T11:29:31;7.45;91.79
67868;SHT31;54672;46.096;14.470;2024-02-26T11:31:59;7.81;91.42
67868;SHT31;54672;46.096;14.470;2024-02-26T11:34:25;7.80;90.64
67868;SHT31;54672;46.096;14.470;2024-02-26T11:36:51;7.63;90.93
67868;SHT31;54672;46.096;14.470;2024-02-26T11:39:17;7.62;90.07
67868;SHT31;54672;46.096;14.470;2024-02-26T11:41:43;7.81;89.79
67868;SHT31;54672;46.096;14.470;2024-02-26T11:44:08;8.09;90.06
67868;SHT31;54672;46.096;14.470;2024-02-26T11:46:41;8.32;89.89
67868;SHT31;54672;46.096;14.470;2024-02-26T11:51:56;8.53;89.62
67868;SHT31;54672;46.096;14.470;2024-02-26T11:57:29;8.41;89.79
67868;SHT31;54672;46.096;14.470;2024-02-26T12:00:12;8.45;89.83
67868;SHT31;54672;46.096;14.470;2024-02-26T12:02:44;8.31;90.01
67868;SHT31;54672;46.096;14.470;2024-02-26T12:05:20;8.35;89.78
67868;SHT31;54672;46.096;14.470;2024-02-26T12:07:52;8.41;89.65
67868;SHT31;54672;46.096;14.470;2024-02-26T12:15:23;8.91;88.42
67868;SHT31;54672;46.096;14.470;2024-02-26T12:17:49;9.06;87.72
67868;SHT31;54672;46.096;14.470;2024-02-26T12:20:17;9.07;87.10
67868;SHT31;54672;46.096;14.470;2024-02-26T12:22:46;8.96;86.89
67868;SHT31;54672;46.096;14.470;2024-02-26T12:25:15;8.91;86.00
67868;SHT31;54672;46.096;14.470;2024-02-26T12:27:41;9.01;86.26
67868;SHT31;54672;46.096;14.470;2024-02-26T12:30:07;9.18;85.96
67868;SHT31;54672;46.096;14.470;2024-02-26T12:32:35;9.41;85.46
67868;SHT31;54672;46.096;14.470;2024-02-26T12:35:00;9.66;84.37
67868;SHT31;54672;46.096;14.470;2024-02-26T12:37:27;9.49;83.47
67868;SHT31;54672;46.096;14.470;2024-02-26T12:39:53;9.44;84.20
67868;SHT31;54672;46.096;14.470;2024-02-26T12:42:18;9.65;83.79
67868;SHT31;54672;46.096;14.470;2024-02-26T12:44:45;10.06;82.33
67868;SHT31;54672;46.096;14.470;2024-02-26T12:47:11;10.32;80.61
67868;SHT31;54672;46.096;14.470;2024-02-26T12:49:42;10.38;80.90
67868;SHT31;54672;46.096;14.470;2024-02-26T12:52:10;10.47;80.85
67868;SHT31;54672;46.096;14.470;2024-02-26T12:54:36;10.64;79.91
67868;SHT31;54672;46.096;14.470;2024-02-26T12:57:05;10.63;80.56
67868;SHT31;54672;46.096;14.470;2024-02-26T12:59:32;10.50;78.66
67868;SHT31;54672;46.096;14.470;2024-02-26T13:01:59;10.34;80.10
67868;SHT31;54672;46.096;14.470;2024-02-26T13:04:26;10.36;81.58
67868;SHT31;54672;46.096;14.470;2024-02-26T13:06:52;10.36;82.08
67868;SHT31;54672;46.096;14.470;2024-02-26T13:09:18;10.46;82.47
67868;SHT31;54672;46.096;14.470;2024-02-26T13:11:44;10.47;82.70
67868;SHT31;54672;46.096;14.470;2024-02-26T13:14:20;10.58;78.38
67868;SHT31;54672;46.096;14.470;2024-02-26T13:16:57;10.71;78.48
67868;SHT31;54672;46.096;14.470;2024-02-26T13:19:23;10.74;78.88
67868;SHT31;54672;46.096;14.470;2024-02-26T13:21:48;10.69;79.53
67868;SHT31;54672;46.096;14.470;2024-02-26T13:24:14;10.89;77.96
67868;SHT31;54672;46.096;14.470;2024-02-26T13:26:39;10.96;78.32
67868;SHT31;54672;46.096;14.470;2024-02-26T13:29:05;10.98;77.65
67868;SHT31;54672;46.096;14.470;2024-02-26T13:31:31;11.09;77.98
67868;SHT31;54672;46.096;14.470;2024-02-26T13:33:57;11.05;78.07
67868;SHT31;54672;46.096;14.470;2024-02-26T13:36:24;11.11;77.39
67868;SHT31;54672;46.096;14.470;2024-02-26T13:38:53;11.12;77.42
67868;SHT31;54672;46.096;14.470;2024-02-26T13:41:20;11.16;77.02
67868;SHT31;54672;46.096;14.470;2024-02-26T13:43:46;11.14;78.13
67868;SHT31;54672;46.096;14.470;2024-02-26T13:46:12;11.11;78.63
67868;SHT31;54672;46.096;14.470;2024-02-26T13:48:39;11.12;77.63
67868;SHT31;54672;46.096;14.470;2024-02-26T13:51:04;11.18;77.66
67868;SHT31;54672;46.096;14.470;2024-02-26T13:53:30;11.20;77.01
67868;SHT31;54672;46.096;14.470;2024-02-26T13:55:56;11.19;77.70
67868;SHT31;54672;46.096;14.470;2024-02-26T13:58:23;11.15;77.81
67868;SHT31;54672;46.096;14.470;2024-02-26T14:00:49;11.23;78.24
67868;SHT31;54672;46.096;14.470;2024-02-26T14:03:15;11.19;79.28
67868;SHT31;54672;46.096;14.470;2024-02-26T14:05:41;11.23;78.32
67868;SHT31;54672;46.096;14.470;2024-02-26T14:08:07;11.20;78.33
67868;SHT31;54672;46.096;14.470;2024-02-26T14:10:32;11.19;78.18
67868;SHT31;54672;46.096;14.470;2024-02-26T14:12:58;11.22;78.63
67868;SHT31;54672;46.096;14.470;2024-02-26T14:15:27;11.16;78.15
67868;SHT31;54672;46.096;14.470;2024-02-26T14:17:54;11.19;77.85
67868;SHT31;54672;46.096;14.470;2024-02-26T14:20:21;11.12;78.12
67868;SHT31;54672;46.096;14.470;2024-02-26T14:22:48;11.06;78.90
67868;SHT31;54672;46.096;14.470;2024-02-26T14:25:14;11.16;78.46
67868;SHT31;54672;46.096;14.470;2024-02-26T14:27:39;11.26;78.61
67868;SHT31;54672;46.096;14.470;2024-02-26T14:30:05;11.22;79.06
67868;SHT31;54672;46.096;14.470;2024-02-26T14:32:31;11.22;79.01
67868;SHT31;54672;46.096;14.470;2024-02-26T14:35:00;11.15;79.52
67868;SHT31;54672;46.096;14.470;2024-02-26T14:37:26;11.12;79.45
67868;SHT31;54672;46.096;14.470;2024-02-26T14:39:51;11.15;79.26
67868;SHT31;54672;46.096;14.470;2024-02-26T14:42:18;11.09;79.40
67868;SHT31;54672;46.096;14.470;2024-02-26T14:44:44;11.04;79.85
67868;SHT31;54672;46.096;14.470;2024-02-26T14:47:09;11.06;79.97
67868;SHT31;54672;46.096;14.470;2024-02-26T14:49:35;10.89;79.31
67868;SHT31;54672;46.096;14.470;2024-02-26T14:52:00;10.98;78.61
67868;SHT31;54672;46.096;14.470;2024-02-26T14:54:28;10.99;78.88
67868;SHT31;54672;46.096;14.470;2024-02-26T14:56:58;10.91;78.50
67868;SHT31;54672;46.096;14.470;2024-02-26T14:59:23;11.01;78.89
67868;SHT31;54672;46.096;14.470;2024-02-26T15:01:49;11.05;79.11
67868;SHT31;54672;46.096;14.470;2024-02-26T15:04:14;10.98;78.10
67868;SHT31;54672;46.096;14.470;2024-02-26T15:06:40;10.91;78.17
67868;SHT31;54672;46.096;14.470;2024-02-26T15:09:06;10.89;78.83
67868;SHT31;54672;46.096;14.470;2024-02-26T15:11:32;10.72;78.64
67868;SHT31;54672;46.096;14.470;2024-02-26T15:13:57;10.71;79.25
67868;SHT31;54672;46.096;14.470;2024-02-26T15:16:23;10.64;78.74
67868;SHT31;54672;46.096;14.470;2024-02-26T15:18:48;10.60;78.86
67868;SHT31;54672;46.096;14.470;2024-02-26T15:21:14;10.57;79.06
67868;SHT31;54672;46.096;14.470;2024-02-26T15:23:42;10.64;79.17
67868;SHT31;54672;46.096;14.470;2024-02-26T15:26:08;10.67;79.51
67868;SHT31;54672;46.096;14.470;2024-02-26T15:28:34;10.61;80.13
67868;SHT31;54672;46.096;14.470;2024-02-26T15:30:59;10.55;79.44
67868;SHT31;54672;46.096;14.470;2024-02-26T15:33:24;10.46;80.24